Terminal Aerodrome Forecast
Issued by NWS Mt. Holly, NJ

Home | Current Version | Previous Version | Text Only | Print | Product List | Glossary On
Versions: 1 2 3 4 5 6 7 8 9 10 11 12 13 14 15 16
000
FTUS41 KPHI 301126
TAFRDG
TAF
KRDG 301126Z 3012/3112 20004KT P6SM BKN015
      TEMPO 3012/3014 SCT015
     FM301400 25008KT P6SM BKN045
      TEMPO 3017/3020 2SM TSRA BR BKN025CB
     FM302100 27008KT P6SM SCT250
     FM310100 VRB03KT P6SM SKC=

USA.gov is the U.S. government's official web portal to all federal, state and local government web resources and services.